sensor_id;sensor_type;location;lat;lon;timestamp;P1;durP1;ratioP1;P2;durP2;ratioP2
3999;SDS011;2014;53.604;10.112;2023-02-18T00:00:19;20.30;;;3.20;;
3999;SDS011;2014;53.604;10.112;2023-02-18T00:02:47;16.00;;;3.17;;
3999;SDS011;2014;53.604;10.112;2023-02-18T00:05:15;13.30;;;2.20;;
3999;SDS011;2014;53.604;10.112;2023-02-18T00:07:43;17.30;;;3.60;;
3999;SDS011;2014;53.604;10.112;2023-02-18T00:10:12;31.93;;;3.60;;
3999;SDS011;2014;53.604;10.112;2023-02-18T00:12:40;8.97;;;2.07;;
3999;SDS011;2014;53.604;10.112;2023-02-18T00:15:08;12.03;;;2.50;;
3999;SDS011;2014;53.604;10.112;2023-02-18T00:17:35;16.17;;;2.93;;
3999;SDS011;2014;53.604;10.112;2023-02-18T00:20:03;17.70;;;3.00;;
3999;SDS011;2014;53.604;10.112;2023-02-18T00:22:30;15.57;;;2.73;;
3999;SDS011;2014;53.604;10.112;2023-02-18T00:24:58;19.80;;;2.20;;
3999;SDS011;2014;53.604;10.112;2023-02-18T00:27:26;15.27;;;2.27;;
3999;SDS011;2014;53.604;10.112;2023-02-18T00:29:54;18.50;;;3.03;;
3999;SDS011;2014;53.604;10.112;2023-02-18T00:32:21;16.07;;;2.83;;
3999;SDS011;2014;53.604;10.112;2023-02-18T00:34:48;18.07;;;3.13;;
3999;SDS011;2014;53.604;10.112;2023-02-18T00:37:15;18.60;;;2.83;;
3999;SDS011;2014;53.604;10.112;2023-02-18T00:39:43;11.70;;;2.60;;
3999;SDS011;2014;53.604;10.112;2023-02-18T00:42:10;5.73;;;2.30;;
3999;SDS011;2014;53.604;10.112;2023-02-18T00:44:39;20.93;;;2.80;;
3999;SDS011;2014;53.604;10.112;2023-02-18T00:47:07;13.63;;;2.20;;
3999;SDS011;2014;53.604;10.112;2023-02-18T00:49:34;13.37;;;2.77;;
3999;SDS011;2014;53.604;10.112;2023-02-18T00:52:01;23.80;;;2.63;;
3999;SDS011;2014;53.604;10.112;2023-02-18T00:54:29;14.03;;;2.23;;
3999;SDS011;2014;53.604;10.112;2023-02-18T00:56:56;14.37;;;3.67;;
3999;SDS011;2014;53.604;10.112;2023-02-18T00:59:24;18.03;;;3.20;;
3999;SDS011;2014;53.604;10.112;2023-02-18T01:01:52;18.60;;;2.20;;
3999;SDS011;2014;53.604;10.112;2023-02-18T01:04:20;13.10;;;2.60;;
3999;SDS011;2014;53.604;10.112;2023-02-18T01:06:47;10.10;;;2.50;;
3999;SDS011;2014;53.604;10.112;2023-02-18T01:09:14;12.90;;;2.00;;
3999;SDS011;2014;53.604;10.112;2023-02-18T01:11:41;17.53;;;1.97;;
3999;SDS011;2014;53.604;10.112;2023-02-18T01:14:09;13.37;;;2.50;;
3999;SDS011;2014;53.604;10.112;2023-02-18T01:16:36;19.23;;;2.53;;
3999;SDS011;2014;53.604;10.112;2023-02-18T01:19:05;21.87;;;3.30;;
3999;SDS011;2014;53.604;10.112;2023-02-18T01:21:32;15.93;;;2.57;;
3999;SDS011;2014;53.604;10.112;2023-02-18T01:23:59;18.17;;;2.50;;
3999;SDS011;2014;53.604;10.112;2023-02-18T01:26:26;12.33;;;3.27;;
3999;SDS011;2014;53.604;10.112;2023-02-18T01:28:54;21.33;;;2.80;;
3999;SDS011;2014;53.604;10.112;2023-02-18T01:31:21;17.50;;;2.80;;
3999;SDS011;2014;53.604;10.112;2023-02-18T01:33:48;9.80;;;1.43;;
3999;SDS011;2014;53.604;10.112;2023-02-18T01:36:17;13.93;;;2.70;;
3999;SDS011;2014;53.604;10.112;2023-02-18T01:38:44;20.27;;;2.27;;
3999;SDS011;2014;53.604;10.112;2023-02-18T01:41:12;10.57;;;1.97;;
3999;SDS011;2014;53.604;10.112;2023-02-18T01:43:39;12.97;;;2.10;;
3999;SDS011;2014;53.604;10.112;2023-02-18T01:46:11;18.70;;;2.53;;
3999;SDS011;2014;53.604;10.112;2023-02-18T01:48:40;13.30;;;2.20;;
3999;SDS011;2014;53.604;10.112;2023-02-18T01:51:09;16.53;;;2.90;;
3999;SDS011;2014;53.604;10.112;2023-02-18T01:53:40;14.93;;;4.00;;
3999;SDS011;2014;53.604;10.112;2023-02-18T01:56:10;20.30;;;2.47;;
3999;SDS011;2014;53.604;10.112;2023-02-18T01:58:39;14.60;;;3.30;;
3999;SDS011;2014;53.604;10.112;2023-02-18T02:01:07;23.93;;;3.70;;
3999;SDS011;2014;53.604;10.112;2023-02-18T02:03:35;12.93;;;2.40;;
3999;SDS011;2014;53.604;10.112;2023-02-18T02:06:05;14.33;;;2.13;;
3999;SDS011;2014;53.604;10.112;2023-02-18T02:08:33;16.73;;;2.40;;
3999;SDS011;2014;53.604;10.112;2023-02-18T02:11:03;18.00;;;2.03;;
3999;SDS011;2014;53.604;10.112;2023-02-18T02:13:38;14.40;;;2.70;;
3999;SDS011;2014;53.604;10.112;2023-02-18T02:16:09;12.73;;;3.40;;
3999;SDS011;2014;53.604;10.112;2023-02-18T02:18:40;17.03;;;3.20;;
3999;SDS011;2014;53.604;10.112;2023-02-18T02:21:18;21.37;;;2.43;;
3999;SDS011;2014;53.604;10.112;2023-02-18T02:32:26;20.50;;;2.80;;
3999;SDS011;2014;53.604;10.112;2023-02-18T02:34:58;22.30;;;3.57;;
3999;SDS011;2014;53.604;10.112;2023-02-18T02:37:30;9.37;;;2.27;;
3999;SDS011;2014;53.604;10.112;2023-02-18T02:40:02;17.57;;;3.13;;
3999;SDS011;2014;53.604;10.112;2023-02-18T02:42:35;11.83;;;1.97;;
3999;SDS011;2014;53.604;10.112;2023-02-18T02:45:08;12.97;;;1.97;;
3999;SDS011;2014;53.604;10.112;2023-02-18T02:47:37;8.20;;;1.60;;
3999;SDS011;2014;53.604;10.112;2023-02-18T02:50:08;8.80;;;1.70;;
3999;SDS011;2014;53.604;10.112;2023-02-18T02:52:37;15.30;;;3.80;;
3999;SDS011;2014;53.604;10.112;2023-02-18T02:55:07;18.23;;;2.90;;
3999;SDS011;2014;53.604;10.112;2023-02-18T02:57:43;19.93;;;2.90;;
3999;SDS011;2014;53.604;10.112;2023-02-18T03:00:10;18.60;;;1.70;;
3999;SDS011;2014;53.604;10.112;2023-02-18T03:02:40;12.60;;;1.97;;
3999;SDS011;2014;53.604;10.112;2023-02-18T03:05:16;17.83;;;2.50;;
3999;SDS011;2014;53.604;10.112;2023-02-18T03:07:51;20.57;;;2.73;;
3999;SDS011;2014;53.604;10.112;2023-02-18T03:10:27;16.53;;;2.33;;
3999;SDS011;2014;53.604;10.112;2023-02-18T03:12:57;5.50;;;1.90;;
3999;SDS011;2014;53.604;10.112;2023-02-18T03:15:28;9.37;;;2.00;;
3999;SDS011;2014;53.604;10.112;2023-02-18T03:18:02;5.97;;;1.00;;
3999;SDS011;2014;53.604;10.112;2023-02-18T03:20:33;18.67;;;2.53;;
3999;SDS011;2014;53.604;10.112;2023-02-18T03:23:02;14.23;;;1.80;;
3999;SDS011;2014;53.604;10.112;2023-02-18T03:25:30;10.97;;;1.80;;
3999;SDS011;2014;53.604;10.112;2023-02-18T03:27:59;10.93;;;1.50;;
3999;SDS011;2014;53.604;10.112;2023-02-18T03:30:28;16.30;;;2.27;;
3999;SDS011;2014;53.604;10.112;2023-02-18T03:32:58;9.13;;;1.50;;
3999;SDS011;2014;53.604;10.112;2023-02-18T03:35:26;12.10;;;1.43;;
3999;SDS011;2014;53.604;10.112;2023-02-18T03:37:56;10.30;;;2.97;;
3999;SDS011;2014;53.604;10.112;2023-02-18T03:40:25;8.50;;;2.13;;
3999;SDS011;2014;53.604;10.112;2023-02-18T03:42:52;13.83;;;2.03;;
3999;SDS011;2014;53.604;10.112;2023-02-18T03:45:20;17.93;;;1.37;;
3999;SDS011;2014;53.604;10.112;2023-02-18T03:47:47;10.20;;;1.60;;
3999;SDS011;2014;53.604;10.112;2023-02-18T03:50:15;14.50;;;2.13;;
3999;SDS011;2014;53.604;10.112;2023-02-18T03:52:42;12.30;;;1.87;;
3999;SDS011;2014;53.604;10.112;2023-02-18T03:55:11;11.23;;;1.33;;
3999;SDS011;2014;53.604;10.112;2023-02-18T03:57:38;16.43;;;1.80;;
3999;SDS011;2014;53.604;10.112;2023-02-18T04:00:06;12.93;;;1.70;;
3999;SDS011;2014;53.604;10.112;2023-02-18T04:02:34;13.97;;;1.20;;
3999;SDS011;2014;53.604;10.112;2023-02-18T04:05:02;7.23;;;1.60;;
3999;SDS011;2014;53.604;10.112;2023-02-18T04:07:29;11.93;;;1.33;;
3999;SDS011;2014;53.604;10.112;2023-02-18T04:09:56;9.87;;;1.67;;
3999;SDS011;2014;53.604;10.112;2023-02-18T04:12:25;3.50;;;0.97;;
3999;SDS011;2014;53.604;10.112;2023-02-18T04:14:52;8.60;;;1.87;;
3999;SDS011;2014;53.604;10.112;2023-02-18T04:17:20;5.30;;;2.40;;
3999;SDS011;2014;53.604;10.112;2023-02-18T04:19:47;5.07;;;1.30;;
3999;SDS011;2014;53.604;10.112;2023-02-18T04:22:14;10.10;;;1.53;;
3999;SDS011;2014;53.604;10.112;2023-02-18T04:24:41;10.97;;;1.97;;
3999;SDS011;2014;53.604;10.112;2023-02-18T04:27:09;3.80;;;0.93;;
3999;SDS011;2014;53.604;10.112;2023-02-18T04:29:37;9.07;;;1.53;;
3999;SDS011;2014;53.604;10.112;2023-02-18T04:32:05;13.80;;;1.67;;
3999;SDS011;2014;53.604;10.112;2023-02-18T04:34:32;9.90;;;1.50;;
3999;SDS011;2014;53.604;10.112;2023-02-18T04:36:59;8.27;;;1.50;;
3999;SDS011;2014;53.604;10.112;2023-02-18T04:39:27;2.70;;;1.20;;
3999;SDS011;2014;53.604;10.112;2023-02-18T04:41:54;6.60;;;1.43;;
3999;SDS011;2014;53.604;10.112;2023-02-18T04:44:21;10.33;;;1.40;;
3999;SDS011;2014;53.604;10.112;2023-02-18T04:46:50;18.23;;;2.60;;
3999;SDS011;2014;53.604;10.112;2023-02-18T04:49:17;8.63;;;2.00;;
3999;SDS011;2014;53.604;10.112;2023-02-18T04:51:44;6.10;;;1.10;;
3999;SDS011;2014;53.604;10.112;2023-02-18T04:54:12;5.80;;;1.80;;
3999;SDS011;2014;53.604;10.112;2023-02-18T04:56:39;7.83;;;1.30;;
3999;SDS011;2014;53.604;10.112;2023-02-18T04:59:06;3.90;;;1.40;;
3999;SDS011;2014;53.604;10.112;2023-02-18T05:01:33;6.73;;;1.30;;
3999;SDS011;2014;53.604;10.112;2023-02-18T05:04:02;14.77;;;1.20;;
3999;SDS011;2014;53.604;10.112;2023-02-18T05:06:29;5.23;;;0.80;;
3999;SDS011;2014;53.604;10.112;2023-02-18T05:08:57;8.10;;;2.60;;
3999;SDS011;2014;53.604;10.112;2023-02-18T05:11:24;6.53;;;1.33;;
3999;SDS011;2014;53.604;10.112;2023-02-18T05:13:51;4.63;;;1.87;;
3999;SDS011;2014;53.604;10.112;2023-02-18T05:16:18;14.87;;;1.60;;
3999;SDS011;2014;53.604;10.112;2023-02-18T05:18:46;6.97;;;1.27;;
3999;SDS011;2014;53.604;10.112;2023-02-18T05:21:15;6.90;;;1.20;;
3999;SDS011;2014;53.604;10.112;2023-02-18T05:23:42;4.53;;;1.10;;
3999;SDS011;2014;53.604;10.112;2023-02-18T05:26:09;9.97;;;1.07;;
3999;SDS011;2014;53.604;10.112;2023-02-18T05:28:37;9.23;;;1.73;;
3999;SDS011;2014;53.604;10.112;2023-02-18T05:31:04;8.63;;;2.23;;
3999;SDS011;2014;53.604;10.112;2023-02-18T05:33:31;8.10;;;1.37;;
3999;SDS011;2014;53.604;10.112;2023-02-18T05:35:58;4.60;;;1.10;;
3999;SDS011;2014;53.604;10.112;2023-02-18T05:38:28;1.13;;;1.00;;
3999;SDS011;2014;53.604;10.112;2023-02-18T05:40:55;5.60;;;1.03;;
3999;SDS011;2014;53.604;10.112;2023-02-18T05:43:22;7.37;;;1.10;;
3999;SDS011;2014;53.604;10.112;2023-02-18T05:45:50;5.97;;;1.10;;
3999;SDS011;2014;53.604;10.112;2023-02-18T05:48:17;8.83;;;1.50;;
3999;SDS011;2014;53.604;10.112;2023-02-18T05:50:44;5.93;;;1.20;;
3999;SDS011;2014;53.604;10.112;2023-02-18T05:53:11;5.70;;;1.50;;
3999;SDS011;2014;53.604;10.112;2023-02-18T05:55:40;7.00;;;2.07;;
3999;SDS011;2014;53.604;10.112;2023-02-18T05:58:07;10.07;;;2.93;;
3999;SDS011;2014;53.604;10.112;2023-02-18T06:00:34;3.53;;;0.90;;
3999;SDS011;2014;53.604;10.112;2023-02-18T06:03:02;6.13;;;1.10;;
3999;SDS011;2014;53.604;10.112;2023-02-18T06:05:29;6.67;;;1.10;;
3999;SDS011;2014;53.604;10.112;2023-02-18T06:07:57;10.77;;;1.53;;
3999;SDS011;2014;53.604;10.112;2023-02-18T06:10:24;9.83;;;1.47;;
3999;SDS011;2014;53.604;10.112;2023-02-18T06:12:53;9.20;;;1.27;;
3999;SDS011;2014;53.604;10.112;2023-02-18T06:15:20;6.93;;;1.73;;
3999;SDS011;2014;53.604;10.112;2023-02-18T06:17:47;17.80;;;1.80;;
3999;SDS011;2014;53.604;10.112;2023-02-18T06:20:14;2.33;;;1.20;;
3999;SDS011;2014;53.604;10.112;2023-02-18T06:22:42;7.60;;;1.97;;
3999;SDS011;2014;53.604;10.112;2023-02-18T06:25:09;5.07;;;1.10;;
3999;SDS011;2014;53.604;10.112;2023-02-18T06:27:37;11.77;;;1.43;;
3999;SDS011;2014;53.604;10.112;2023-02-18T06:30:06;3.90;;;1.00;;
3999;SDS011;2014;53.604;10.112;2023-02-18T06:32:33;3.10;;;1.07;;
3999;SDS011;2014;53.604;10.112;2023-02-18T06:35:01;9.23;;;1.67;;
3999;SDS011;2014;53.604;10.112;2023-02-18T06:37:28;5.33;;;1.13;;
3999;SDS011;2014;53.604;10.112;2023-02-18T06:39:55;4.33;;;1.30;;
3999;SDS011;2014;53.604;10.112;2023-02-18T06:42:23;3.20;;;1.13;;
3999;SDS011;2014;53.604;10.112;2023-02-18T06:44:50;5.63;;;1.20;;
3999;SDS011;2014;53.604;10.112;2023-02-18T06:47:18;7.47;;;0.93;;
3999;SDS011;2014;53.604;10.112;2023-02-18T06:49:46;3.67;;;0.60;;
3999;SDS011;2014;53.604;10.112;2023-02-18T06:52:13;1.70;;;0.50;;
3999;SDS011;2014;53.604;10.112;2023-02-18T06:54:40;8.77;;;1.13;;
3999;SDS011;2014;53.604;10.112;2023-02-18T06:57:08;8.53;;;1.30;;
3999;SDS011;2014;53.604;10.112;2023-02-18T06:59:35;2.43;;;1.03;;
3999;SDS011;2014;53.604;10.112;2023-02-18T07:02:03;8.30;;;1.10;;
3999;SDS011;2014;53.604;10.112;2023-02-18T07:04:31;2.43;;;1.07;;
3999;SDS011;2014;53.604;10.112;2023-02-18T07:06:58;4.73;;;1.00;;
3999;SDS011;2014;53.604;10.112;2023-02-18T07:09:26;5.57;;;1.07;;
3999;SDS011;2014;53.604;10.112;2023-02-18T07:11:53;3.63;;;0.70;;
3999;SDS011;2014;53.604;10.112;2023-02-18T07:14:20;7.20;;;1.37;;
3999;SDS011;2014;53.604;10.112;2023-02-18T07:16:48;2.63;;;1.30;;
3999;SDS011;2014;53.604;10.112;2023-02-18T07:19:15;2.73;;;0.70;;
3999;SDS011;2014;53.604;10.112;2023-02-18T07:21:44;6.70;;;0.73;;
3999;SDS011;2014;53.604;10.112;2023-02-18T07:24:11;3.47;;;1.20;;
3999;SDS011;2014;53.604;10.112;2023-02-18T07:26:39;3.90;;;1.00;;
3999;SDS011;2014;53.604;10.112;2023-02-18T07:29:06;2.83;;;0.87;;
3999;SDS011;2014;53.604;10.112;2023-02-18T07:31:33;3.03;;;0.80;;
3999;SDS011;2014;53.604;10.112;2023-02-18T07:34:02;4.63;;;1.30;;
3999;SDS011;2014;53.604;10.112;2023-02-18T07:36:30;5.50;;;0.90;;
3999;SDS011;2014;53.604;10.112;2023-02-18T07:38:58;5.13;;;1.80;;
3999;SDS011;2014;53.604;10.112;2023-02-18T07:41:26;2.33;;;0.93;;
3999;SDS011;2014;53.604;10.112;2023-02-18T07:43:53;5.93;;;0.93;;
3999;SDS011;2014;53.604;10.112;2023-02-18T07:46:20;3.23;;;1.23;;
3999;SDS011;2014;53.604;10.112;2023-02-18T07:48:48;5.03;;;1.00;;
3999;SDS011;2014;53.604;10.112;2023-02-18T07:51:15;5.13;;;1.30;;
3999;SDS011;2014;53.604;10.112;2023-02-18T07:53:42;2.87;;;0.80;;
3999;SDS011;2014;53.604;10.112;2023-02-18T07:56:11;9.90;;;1.30;;
3999;SDS011;2014;53.604;10.112;2023-02-18T07:58:38;8.57;;;1.10;;
3999;SDS011;2014;53.604;10.112;2023-02-18T08:01:06;3.03;;;0.93;;
3999;SDS011;2014;53.604;10.112;2023-02-18T08:03:34;3.60;;;1.47;;
3999;SDS011;2014;53.604;10.112;2023-02-18T08:06:02;3.07;;;1.07;;
3999;SDS011;2014;53.604;10.112;2023-02-18T08:08:30;4.57;;;1.60;;
3999;SDS011;2014;53.604;10.112;2023-02-18T08:10:58;5.83;;;1.73;;
3999;SDS011;2014;53.604;10.112;2023-02-18T08:13:28;2.70;;;1.30;;
3999;SDS011;2014;53.604;10.112;2023-02-18T08:15:56;7.93;;;1.23;;
3999;SDS011;2014;53.604;10.112;2023-02-18T08:18:24;4.60;;;1.47;;
3999;SDS011;2014;53.604;10.112;2023-02-18T08:20:51;5.87;;;1.20;;
3999;SDS011;2014;53.604;10.112;2023-02-18T08:23:20;6.30;;;1.80;;
3999;SDS011;2014;53.604;10.112;2023-02-18T08:25:50;6.10;;;1.60;;
3999;SDS011;2014;53.604;10.112;2023-02-18T08:28:17;6.33;;;1.30;;
3999;SDS011;2014;53.604;10.112;2023-02-18T08:30:46;7.80;;;1.43;;
3999;SDS011;2014;53.604;10.112;2023-02-18T08:33:14;2.73;;;1.10;;
3999;SDS011;2014;53.604;10.112;2023-02-18T08:35:42;5.67;;;1.27;;
3999;SDS011;2014;53.604;10.112;2023-02-18T08:38:09;2.80;;;1.97;;
3999;SDS011;2014;53.604;10.112;2023-02-18T08:40:36;3.93;;;1.77;;
3999;SDS011;2014;53.604;10.112;2023-02-18T08:43:05;4.43;;;1.40;;
3999;SDS011;2014;53.604;10.112;2023-02-18T08:45:32;2.97;;;0.90;;
3999;SDS011;2014;53.604;10.112;2023-02-18T08:48:03;8.97;;;1.37;;
3999;SDS011;2014;53.604;10.112;2023-02-18T08:50:31;1.60;;;1.50;;
3999;SDS011;2014;53.604;10.112;2023-02-18T08:52:58;20.23;;;1.63;;
3999;SDS011;2014;53.604;10.112;2023-02-18T08:55:27;13.83;;;2.30;;
3999;SDS011;2014;53.604;10.112;2023-02-18T08:57:54;8.10;;;1.77;;
3999;SDS011;2014;53.604;10.112;2023-02-18T09:00:22;23.17;;;2.93;;
3999;SDS011;2014;53.604;10.112;2023-02-18T09:02:49;15.00;;;2.20;;
3999;SDS011;2014;53.604;10.112;2023-02-18T09:05:18;10.83;;;2.57;;
3999;SDS011;2014;53.604;10.112;2023-02-18T09:07:45;8.97;;;1.60;;
3999;SDS011;2014;53.604;10.112;2023-02-18T09:10:13;10.73;;;2.10;;
3999;SDS011;2014;53.604;10.112;2023-02-18T09:12:40;6.10;;;2.27;;
3999;SDS011;2014;53.604;10.112;2023-02-18T09:15:07;4.90;;;1.77;;
3999;SDS011;2014;53.604;10.112;2023-02-18T09:17:35;5.00;;;2.30;;
3999;SDS011;2014;53.604;10.112;2023-02-18T09:20:02;14.90;;;2.90;;
3999;SDS011;2014;53.604;10.112;2023-02-18T09:22:31;6.77;;;2.13;;
3999;SDS011;2014;53.604;10.112;2023-02-18T09:24:58;2.90;;;1.80;;
3999;SDS011;2014;53.604;10.112;2023-02-18T09:27:25;9.10;;;2.43;;
3999;SDS011;2014;53.604;10.112;2023-02-18T09:29:52;3.97;;;2.37;;
3999;SDS011;2014;53.604;10.112;2023-02-18T09:32:20;7.83;;;3.37;;
3999;SDS011;2014;53.604;10.112;2023-02-18T09:34:47;6.83;;;3.30;;
3999;SDS011;2014;53.604;10.112;2023-02-18T09:37:14;6.40;;;2.70;;
3999;SDS011;2014;53.604;10.112;2023-02-18T09:39:43;7.93;;;3.50;;
3999;SDS011;2014;53.604;10.112;2023-02-18T09:42:11;8.10;;;3.77;;
3999;SDS011;2014;53.604;10.112;2023-02-18T09:44:41;6.03;;;3.40;;
3999;SDS011;2014;53.604;10.112;2023-02-18T09:47:10;4.33;;;3.83;;
3999;SDS011;2014;53.604;10.112;2023-02-18T09:49:39;3.57;;;3.27;;
3999;SDS011;2014;53.604;10.112;2023-02-18T09:52:10;4.87;;;2.73;;
3999;SDS011;2014;53.604;10.112;2023-02-18T09:54:39;8.97;;;2.93;;
3999;SDS011;2014;53.604;10.112;2023-02-18T09:57:07;3.67;;;2.70;;
3999;SDS011;2014;53.604;10.112;2023-02-18T09:59:41;8.73;;;3.47;;
3999;SDS011;2014;53.604;10.112;2023-02-18T10:02:10;7.00;;;2.83;;
3999;SDS011;2014;53.604;10.112;2023-02-18T10:04:42;4.13;;;3.30;;
3999;SDS011;2014;53.604;10.112;2023-02-18T10:07:11;3.83;;;3.50;;
3999;SDS011;2014;53.604;10.112;2023-02-18T10:09:44;4.67;;;4.10;;
3999;SDS011;2014;53.604;10.112;2023-02-18T10:12:14;3.67;;;3.43;;
3999;SDS011;2014;53.604;10.112;2023-02-18T10:14:42;3.43;;;3.23;;
3999;SDS011;2014;53.604;10.112;2023-02-18T10:17:10;3.80;;;3.57;;
3999;SDS011;2014;53.604;10.112;2023-02-18T10:19:39;4.40;;;3.67;;
3999;SDS011;2014;53.604;10.112;2023-02-18T10:22:07;5.10;;;4.77;;
3999;SDS011;2014;53.604;10.112;2023-02-18T10:24:37;5.13;;;4.80;;
3999;SDS011;2014;53.604;10.112;2023-02-18T10:27:06;5.30;;;4.87;;
3999;SDS011;2014;53.604;10.112;2023-02-18T10:29:35;4.60;;;4.40;;
3999;SDS011;2014;53.604;10.112;2023-02-18T10:32:05;5.20;;;4.80;;
3999;SDS011;2014;53.604;10.112;2023-02-18T10:34:38;6.30;;;4.53;;
3999;SDS011;2014;53.604;10.112;2023-02-18T10:37:08;4.47;;;4.37;;
3999;SDS011;2014;53.604;10.112;2023-02-18T10:39:43;5.10;;;4.70;;
3999;SDS011;2014;53.604;10.112;2023-02-18T10:42:16;4.50;;;4.30;;
3999;SDS011;2014;53.604;10.112;2023-02-18T10:44:47;5.00;;;4.80;;
3999;SDS011;2014;53.604;10.112;2023-02-18T10:47:19;4.73;;;4.43;;
3999;SDS011;2014;53.604;10.112;2023-02-18T10:49:53;4.53;;;4.33;;
3999;SDS011;2014;53.604;10.112;2023-02-18T10:52:21;4.93;;;4.63;;
3999;SDS011;2014;53.604;10.112;2023-02-18T10:54:51;4.80;;;4.60;;
3999;SDS011;2014;53.604;10.112;2023-02-18T10:57:19;5.20;;;4.90;;
3999;SDS011;2014;53.604;10.112;2023-02-18T10:59:54;5.03;;;4.80;;
3999;SDS011;2014;53.604;10.112;2023-02-18T11:02:23;5.50;;;5.20;;
3999;SDS011;2014;53.604;10.112;2023-02-18T11:04:53;4.73;;;4.53;;
3999;SDS011;2014;53.604;10.112;2023-02-18T11:07:22;5.63;;;5.17;;
3999;SDS011;2014;53.604;10.112;2023-02-18T11:09:50;5.03;;;4.83;;
3999;SDS011;2014;53.604;10.112;2023-02-18T11:12:18;5.17;;;4.90;;
3999;SDS011;2014;53.604;10.112;2023-02-18T11:14:47;5.10;;;4.70;;
3999;SDS011;2014;53.604;10.112;2023-02-18T11:17:17;4.40;;;4.20;;
3999;SDS011;2014;53.604;10.112;2023-02-18T11:19:50;4.40;;;4.10;;
3999;SDS011;2014;53.604;10.112;2023-02-18T11:22:19;5.63;;;5.10;;
3999;SDS011;2014;53.604;10.112;2023-02-18T11:24:46;5.17;;;4.90;;
3999;SDS011;2014;53.604;10.112;2023-02-18T11:27:18;5.13;;;4.37;;
3999;SDS011;2014;53.604;10.112;2023-02-18T11:29:47;5.13;;;4.93;;
3999;SDS011;2014;53.604;10.112;2023-02-18T11:32:16;3.70;;;3.60;;
3999;SDS011;2014;53.604;10.112;2023-02-18T11:34:44;3.87;;;3.77;;
3999;SDS011;2014;53.604;10.112;2023-02-18T11:37:19;4.63;;;4.33;;
3999;SDS011;2014;53.604;10.112;2023-02-18T11:39:48;3.70;;;3.60;;
3999;SDS011;2014;53.604;10.112;2023-02-18T11:42:17;4.60;;;4.20;;
3999;SDS011;2014;53.604;10.112;2023-02-18T11:44:47;4.53;;;4.43;;
3999;SDS011;2014;53.604;10.112;2023-02-18T11:47:21;3.73;;;3.53;;
3999;SDS011;2014;53.604;10.112;2023-02-18T11:50:00;4.03;;;3.93;;
3999;SDS011;2014;53.604;10.112;2023-02-18T11:52:31;4.10;;;3.90;;
3999;SDS011;2014;53.604;10.112;2023-02-18T11:55:00;3.67;;;3.43;;
3999;SDS011;2014;53.604;10.112;2023-02-18T11:57:28;4.07;;;3.70;;
3999;SDS011;2014;53.604;10.112;2023-02-18T11:59:56;3.50;;;3.40;;
3999;SDS011;2014;53.604;10.112;2023-02-18T12:02:29;4.97;;;4.77;;
3999;SDS011;2014;53.604;10.112;2023-02-18T12:04:58;5.10;;;4.83;;
3999;SDS011;2014;53.604;10.112;2023-02-18T12:07:28;3.97;;;3.83;;
3999;SDS011;2014;53.604;10.112;2023-02-18T12:09:58;4.20;;;3.90;;
3999;SDS011;2014;53.604;10.112;2023-02-18T12:12:27;2.83;;;2.73;;
3999;SDS011;2014;53.604;10.112;2023-02-18T12:14:55;2.60;;;2.50;;
3999;SDS011;2014;53.604;10.112;2023-02-18T12:17:30;1.33;;;1.33;;
3999;SDS011;2014;53.604;10.112;2023-02-18T12:22:48;2.13;;;1.10;;
3999;SDS011;2014;53.604;10.112;2023-02-18T12:25:24;0.60;;;0.50;;
3999;SDS011;2014;53.604;10.112;2023-02-18T12:28:03;0.63;;;0.63;;
3999;SDS011;2014;53.604;10.112;2023-02-18T12:33:24;0.63;;;0.63;;
3999;SDS011;2014;53.604;10.112;2023-02-18T12:35:58;0.73;;;0.73;;
3999;SDS011;2014;53.604;10.112;2023-02-18T12:41:13;3.53;;;1.40;;
3999;SDS011;2014;53.604;10.112;2023-02-18T12:43:46;3.13;;;0.80;;
3999;SDS011;2014;53.604;10.112;2023-02-18T12:46:21;4.67;;;1.77;;
3999;SDS011;2014;53.604;10.112;2023-02-18T12:48:54;4.63;;;0.67;;
3999;SDS011;2014;53.604;10.112;2023-02-18T12:51:26;2.30;;;0.80;;
3999;SDS011;2014;53.604;10.112;2023-02-18T12:56:45;6.60;;;0.93;;
3999;SDS011;2014;53.604;10.112;2023-02-18T12:59:18;3.90;;;1.93;;
3999;SDS011;2014;53.604;10.112;2023-02-18T13:01:51;2.27;;;1.37;;
3999;SDS011;2014;53.604;10.112;2023-02-18T13:04:24;6.33;;;1.83;;
3999;SDS011;2014;53.604;10.112;2023-02-18T13:07:12;5.73;;;1.17;;
3999;SDS011;2014;53.604;10.112;2023-02-18T13:09:46;1.93;;;1.30;;
3999;SDS011;2014;53.604;10.112;2023-02-18T13:12:21;7.93;;;1.73;;
3999;SDS011;2014;53.604;10.112;2023-02-18T13:14:52;4.50;;;1.30;;
3999;SDS011;2014;53.604;10.112;2023-02-18T13:17:22;7.80;;;1.57;;
3999;SDS011;2014;53.604;10.112;2023-02-18T13:19:53;6.70;;;1.40;;
3999;SDS011;2014;53.604;10.112;2023-02-18T13:22:22;7.07;;;1.47;;
3999;SDS011;2014;53.604;10.112;2023-02-18T13:24:50;6.90;;;1.53;;
3999;SDS011;2014;53.604;10.112;2023-02-18T13:27:19;6.97;;;1.60;;
3999;SDS011;2014;53.604;10.112;2023-02-18T13:29:50;4.83;;;1.90;;
3999;SDS011;2014;53.604;10.112;2023-02-18T13:32:21;4.80;;;1.30;;
3999;SDS011;2014;53.604;10.112;2023-02-18T13:34:53;7.00;;;1.77;;
3999;SDS011;2014;53.604;10.112;2023-02-18T13:37:25;3.53;;;1.70;;
3999;SDS011;2014;53.604;10.112;2023-02-18T13:39:55;3.63;;;1.60;;
3999;SDS011;2014;53.604;10.112;2023-02-18T13:42:32;4.87;;;1.47;;
3999;SDS011;2014;53.604;10.112;2023-02-18T13:45:21;2.10;;;1.23;;
3999;SDS011;2014;53.604;10.112;2023-02-18T13:47:49;3.83;;;1.23;;
3999;SDS011;2014;53.604;10.112;2023-02-18T13:50:25;4.50;;;1.30;;
3999;SDS011;2014;53.604;10.112;2023-02-18T13:52:57;4.53;;;1.57;;
3999;SDS011;2014;53.604;10.112;2023-02-18T13:55:38;2.20;;;1.50;;
3999;SDS011;2014;53.604;10.112;2023-02-18T13:58:09;3.73;;;1.83;;
3999;SDS011;2014;53.604;10.112;2023-02-18T14:00:39;5.33;;;1.53;;
3999;SDS011;2014;53.604;10.112;2023-02-18T14:03:18;4.00;;;1.70;;
3999;SDS011;2014;53.604;10.112;2023-02-18T14:05:47;3.10;;;1.43;;
3999;SDS011;2014;53.604;10.112;2023-02-18T14:08:28;1.77;;;1.63;;
3999;SDS011;2014;53.604;10.112;2023-02-18T14:13:38;1.40;;;1.20;;
3999;SDS011;2014;53.604;10.112;2023-02-18T14:16:06;1.30;;;1.30;;
3999;SDS011;2014;53.604;10.112;2023-02-18T14:21:35;0.93;;;0.93;;
3999;SDS011;2014;53.604;10.112;2023-02-18T14:24:03;2.00;;;1.90;;
3999;SDS011;2014;53.604;10.112;2023-02-18T14:29:23;1.10;;;1.10;;
3999;SDS011;2014;53.604;10.112;2023-02-18T14:31:53;1.40;;;1.40;;
3999;SDS011;2014;53.604;10.112;2023-02-18T14:34:28;2.13;;;2.07;;
3999;SDS011;2014;53.604;10.112;2023-02-18T14:37:05;2.47;;;1.30;;
3999;SDS011;2014;53.604;10.112;2023-02-18T14:39:40;1.40;;;1.40;;
3999;SDS011;2014;53.604;10.112;2023-02-18T14:42:12;1.40;;;1.40;;
3999;SDS011;2014;53.604;10.112;2023-02-18T14:44:47;1.20;;;1.20;;
3999;SDS011;2014;53.604;10.112;2023-02-18T14:47:24;2.33;;;2.23;;
3999;SDS011;2014;53.604;10.112;2023-02-18T14:49:54;3.40;;;2.20;;
3999;SDS011;2014;53.604;10.112;2023-02-18T14:52:27;1.90;;;1.90;;
3999;SDS011;2014;53.604;10.112;2023-02-18T14:54:55;1.70;;;1.70;;
3999;SDS011;2014;53.604;10.112;2023-02-18T14:57:26;3.53;;;3.20;;
3999;SDS011;2014;53.604;10.112;2023-02-18T14:59:56;1.40;;;1.40;;
3999;SDS011;2014;53.604;10.112;2023-02-18T15:02:25;1.77;;;1.77;;
3999;SDS011;2014;53.604;10.112;2023-02-18T15:04:55;1.33;;;1.33;;
3999;SDS011;2014;53.604;10.112;2023-02-18T15:07:32;0.73;;;0.73;;
3999;SDS011;2014;53.604;10.112;2023-02-18T15:10:00;1.47;;;1.07;;
3999;SDS011;2014;53.604;10.112;2023-02-18T15:12:27;1.23;;;0.80;;
3999;SDS011;2014;53.604;10.112;2023-02-18T15:14:55;1.67;;;0.80;;
3999;SDS011;2014;53.604;10.112;2023-02-18T15:17:26;0.80;;;0.80;;
3999;SDS011;2014;53.604;10.112;2023-02-18T15:19:54;0.70;;;0.70;;
3999;SDS011;2014;53.604;10.112;2023-02-18T15:22:23;1.00;;;1.00;;
3999;SDS011;2014;53.604;10.112;2023-02-18T15:24:53;0.90;;;0.90;;
3999;SDS011;2014;53.604;10.112;2023-02-18T15:27:21;1.10;;;1.00;;
3999;SDS011;2014;53.604;10.112;2023-02-18T15:29:50;2.10;;;0.90;;
3999;SDS011;2014;53.604;10.112;2023-02-18T15:32:18;2.80;;;1.57;;
3999;SDS011;2014;53.604;10.112;2023-02-18T15:34:48;1.17;;;0.77;;
3999;SDS011;2014;53.604;10.112;2023-02-18T15:37:15;0.93;;;0.90;;